createdAt,value
2018-05-24T09:49:13.914Z,14.85
2018-05-24T09:50:13.915Z,14.8
2018-05-24T09:51:13.622Z,14.8
2018-05-24T09:52:13.880Z,14.86
2018-05-24T09:53:13.867Z,14.79
2018-05-24T09:54:13.932Z,14.87
2018-05-24T09:55:13.683Z,14.87
2018-05-24T09:56:13.600Z,15.02
2018-05-24T09:57:13.603Z,14.95
2018-05-24T09:58:13.835Z,14.98
2018-05-24T09:59:13.569Z,15.02
2018-05-24T10:00:13.567Z,15.04
2018-05-24T10:01:13.363Z,15.02
2018-05-24T10:02:13.560Z,15.05
2018-05-24T10:03:13.545Z,15.08
2018-05-24T10:04:13.554Z,15.02
2018-05-24T10:05:13.535Z,15.1
2018-05-24T10:06:13.270Z,15.07
2018-05-24T10:07:13.522Z,15.05
2018-05-24T10:08:13.519Z,15.02
2018-05-24T10:09:13.796Z,15.05
2018-05-24T10:10:13.568Z,15.02
2018-05-24T10:11:13.523Z,15.05
2018-05-24T10:12:13.494Z,15.02
2018-05-24T10:13:13.496Z,15.02
2018-05-24T10:14:13.753Z,15.05
2018-05-24T10:15:13.759Z,15.1
2018-05-24T10:16:13.250Z,15.05
2018-05-24T10:17:13.219Z,15.02
2018-05-24T10:18:13.909Z,15.01
2018-05-24T10:19:13.450Z,15.08
2018-05-24T10:20:13.705Z,15.04
2018-05-24T10:21:13.771Z,15.05
2018-05-24T10:22:13.437Z,14.98
2018-05-24T10:23:13.431Z,14.98
2018-05-24T10:24:13.425Z,14.94
2018-05-24T10:25:13.417Z,14.93
2018-05-24T10:26:13.670Z,14.85
2018-05-24T10:27:13.665Z,14.8
2018-05-24T10:28:13.143Z,14.79
2018-05-24T10:29:13.394Z,14.74
2018-05-24T10:30:13.389Z,14.79
2018-05-24T10:31:13.383Z,14.64
2018-05-24T10:32:13.634Z,14.67
2018-05-24T10:33:13.627Z,14.63
2018-05-24T10:34:13.366Z,14.69
2018-05-24T10:35:13.358Z,14.61
2018-05-24T10:36:13.095Z,14.71
2018-05-24T10:37:13.353Z,14.64
2018-05-24T10:38:13.346Z,14.64
2018-05-24T10:39:13.341Z,14.63
2018-05-24T10:40:13.327Z,14.71
2018-05-24T10:41:13.585Z,14.66
2018-05-24T10:42:13.583Z,14.64
2018-05-24T10:43:13.311Z,14.69
2018-05-24T10:44:13.303Z,14.63
2018-05-24T10:45:13.423Z,14.59
2018-05-24T10:46:13.293Z,14.66
2018-05-24T10:47:13.288Z,14.66
2018-05-24T10:48:13.294Z,14.64
2018-05-24T10:49:13.535Z,14.64
2018-05-24T10:50:13.013Z,14.6
2018-05-24T10:51:13.439Z,14.69
2018-05-24T10:52:13.514Z,14.64
2018-05-24T10:53:13.510Z,14.64
2018-05-24T10:54:13.711Z,14.71
2018-05-24T10:55:13.498Z,14.69
2018-05-24T10:56:13.660Z,14.83
2018-05-24T10:57:13.226Z,14.8
2018-05-24T10:58:13.218Z,14.87
2018-05-24T10:59:13.211Z,14.93
2018-05-24T11:00:13.206Z,14.95
2018-05-24T11:01:13.464Z,15
2018-05-24T11:02:13.195Z,14.97
2018-05-24T11:03:13.353Z,15.02
2018-05-24T11:04:13.444Z,15.01
2018-05-24T11:05:13.179Z,15.02
2018-05-24T11:06:13.144Z,15.07
2018-05-24T11:07:12.908Z,15.1
2018-05-24T11:08:13.160Z,15.12
2018-05-24T11:09:13.153Z,15.19
2018-05-24T11:10:13.148Z,15.13
2018-05-24T11:11:13.401Z,15.18
2018-05-24T11:12:13.395Z,15.13
2018-05-24T11:13:13.388Z,15.13
2018-05-24T11:14:13.123Z,15.1
2018-05-24T11:15:13.119Z,15.2
2018-05-24T11:16:13.111Z,15.2
2018-05-24T11:17:13.106Z,15.16
2018-05-24T11:18:13.102Z,15.25
2018-05-24T11:19:13.361Z,15.23
2018-05-24T11:20:16.350Z,15.25
2018-05-24T11:21:13.086Z,15.25
2018-05-24T11:22:13.079Z,15.27
2018-05-24T11:23:13.075Z,15.4
2018-05-24T11:24:13.074Z,15.31
2018-05-24T11:25:12.893Z,15.35
2018-05-24T11:26:13.324Z,15.38
2018-05-24T11:27:13.309Z,15.35
2018-05-24T11:28:13.045Z,15.43
2018-05-24T11:29:13.041Z,15.26
2018-05-24T11:30:13.291Z,15.2
2018-05-24T11:31:13.290Z,15.18
2018-05-24T11:32:13.135Z,15.23
2018-05-24T11:33:13.286Z,15.25
2018-05-24T11:34:13.269Z,15.23
2018-05-24T11:35:13.010Z,15.16
2018-05-24T11:36:13.262Z,15.23
2018-05-24T11:37:13.579Z,15.23
2018-05-24T11:38:12.994Z,15.25
2018-05-24T11:39:13.252Z,15.22
2018-05-24T11:40:12.980Z,15.34
2018-05-24T11:41:12.975Z,15.27
2018-05-24T11:42:12.968Z,15.33
2018-05-24T11:43:13.213Z,15.31
2018-05-24T11:44:13.219Z,15.31
2018-05-24T11:45:12.695Z,15.31
2018-05-24T11:46:12.946Z,15.33
2018-05-24T11:47:12.957Z,15.37
2018-05-24T11:48:12.938Z,15.33
2018-05-24T11:49:12.933Z,15.31
2018-05-24T11:50:13.185Z,15.34
2018-05-24T11:51:13.176Z,15.26
2018-05-24T11:52:13.177Z,15.31
2018-05-24T11:53:13.163Z,15.37
2018-05-24T11:54:12.909Z,15.37
2018-05-24T11:55:13.157Z,15.26
2018-05-24T11:56:13.151Z,15.35
2018-05-24T11:57:12.888Z,15.27
2018-05-24T11:58:12.625Z,15.44
2018-05-24T11:59:12.878Z,15.3
2018-05-24T12:00:12.612Z,15.38
2018-05-24T12:01:13.119Z,15.37
2018-05-24T12:02:13.117Z,15.41
2018-05-24T12:03:13.110Z,15.41
2018-05-24T12:04:12.849Z,15.3
2018-05-24T12:05:12.588Z,15.27
2018-05-24T12:06:12.843Z,15.3
2018-05-24T12:07:13.415Z,15.38
2018-05-24T12:08:12.832Z,15.31
2018-05-24T12:09:12.822Z,15.27
2018-05-24T12:10:13.074Z,15.33
2018-05-24T12:11:12.812Z,15.38
2018-05-24T12:12:13.063Z,15.4
2018-05-24T12:13:12.801Z,15.27
2018-05-24T12:14:12.792Z,15.44
2018-05-24T12:15:12.942Z,15.38
2018-05-24T12:16:12.785Z,15.38
2018-05-24T12:17:12.780Z,15.34
2018-05-24T12:18:12.774Z,15.33
2018-05-24T12:19:12.768Z,15.27
2018-05-24T12:20:13.022Z,15.34
2018-05-24T12:21:12.763Z,15.31
2018-05-24T12:22:12.750Z,15.38
2018-05-24T12:23:13.005Z,15.33
2018-05-24T12:24:12.743Z,15.31
2018-05-24T12:25:12.737Z,15.33
2018-05-24T12:26:12.473Z,15.4
2018-05-24T12:27:12.726Z,15.35
2018-05-24T12:28:12.724Z,15.44
2018-05-24T12:29:13.237Z,15.31
2018-05-24T12:30:12.723Z,15.37
2018-05-24T12:31:12.449Z,15.45
2018-05-24T12:32:12.962Z,15.43
2018-05-24T12:33:12.950Z,15.41
2018-05-24T12:34:12.689Z,15.38
2018-05-24T12:35:12.690Z,15.4
2018-05-24T12:36:12.947Z,15.44
2018-05-24T12:37:12.928Z,15.43
2018-05-24T12:38:12.411Z,15.44
2018-05-24T12:39:13.003Z,15.44
2018-05-24T12:40:12.658Z,15.44
2018-05-24T12:41:12.911Z,15.41
2018-05-24T12:42:12.904Z,15.45
2018-05-24T12:43:12.641Z,15.52
2018-05-24T12:44:12.380Z,15.45
2018-05-24T12:45:12.375Z,15.47
2018-05-24T12:46:12.625Z,15.51
2018-05-24T12:47:12.623Z,15.55
2018-05-24T12:48:12.614Z,15.52
2018-05-24T12:49:12.660Z,15.51
2018-05-24T12:50:12.606Z,15.44
2018-05-24T12:51:12.680Z,15.43
2018-05-24T12:52:12.852Z,15.41
2018-05-24T12:53:12.332Z,15.41
2018-05-24T12:54:12.855Z,15.41
2018-05-24T12:55:12.839Z,15.45
2018-05-24T12:56:12.413Z,15.47
2018-05-24T12:57:12.828Z,15.51
2018-05-24T12:58:12.565Z,15.52
2018-05-24T12:59:12.827Z,15.55
2018-05-24T13:00:12.555Z,15.51
2018-05-24T13:01:12.552Z,15.58
2018-05-24T13:02:12.801Z,15.55
2018-05-24T13:03:12.542Z,15.53
2018-05-24T13:04:13.031Z,15.58
2018-05-24T13:05:12.797Z,15.56
2018-05-24T13:06:12.269Z,15.44
2018-05-24T13:07:12.776Z,15.53
2018-05-24T13:08:12.772Z,15.52
2018-05-24T13:09:12.509Z,15.52
2018-05-24T13:10:12.768Z,15.59
2018-05-24T13:11:12.567Z,15.52
2018-05-24T13:12:12.496Z,15.56
2018-05-24T13:13:12.488Z,15.53
2018-05-24T13:14:12.485Z,15.51
2018-05-24T13:15:12.738Z,15.56
2018-05-24T13:16:12.730Z,15.51
2018-05-24T13:17:12.549Z,15.45
2018-05-24T13:18:12.466Z,15.45
2018-05-24T13:19:12.716Z,15.43
2018-05-24T13:20:12.715Z,15.44
2018-05-24T13:21:12.705Z,15.41
2018-05-24T13:22:12.701Z,15.44
2018-05-24T13:23:12.182Z,15.38
2018-05-24T13:24:12.514Z,15.27
2018-05-24T13:25:12.689Z,15.37
2018-05-24T13:26:12.168Z,15.33
2018-05-24T13:27:12.682Z,15.33
2018-05-24T13:28:12.410Z,15.34
2018-05-24T13:29:12.408Z,15.35
2018-05-24T13:30:12.405Z,15.31
2018-05-24T13:31:12.654Z,15.25
2018-05-24T13:32:12.394Z,15.23
2018-05-24T13:33:12.646Z,15.22
2018-05-24T13:34:12.640Z,15.22
2018-05-24T13:35:12.377Z,15.07
2018-05-24T13:36:12.374Z,15.02
2018-05-24T13:37:12.628Z,15.07
2018-05-24T13:38:12.623Z,15.02
2018-05-24T13:39:12.357Z,15
2018-05-24T13:40:12.610Z,14.93
2018-05-24T13:41:12.603Z,14.87
2018-05-24T13:42:12.602Z,14.9
2018-05-24T13:43:12.591Z,14.9
2018-05-24T13:44:12.330Z,14.87
2018-05-24T13:45:12.682Z,14.89
2018-05-24T13:46:12.320Z,14.8
2018-05-24T13:47:12.570Z,14.9
2018-05-24T13:48:12.313Z,14.82
2018-05-24T13:49:12.569Z,14.79
2018-05-24T13:50:12.295Z,14.8
2018-05-24T13:51:12.560Z,14.8
2018-05-24T13:52:12.290Z,14.9
2018-05-24T13:53:12.540Z,14.86
2018-05-24T13:54:12.283Z,14.97
2018-05-24T13:55:12.269Z,14.94
2018-05-24T13:56:12.266Z,15.01
2018-05-24T13:57:12.256Z,14.9
2018-05-24T13:58:12.509Z,14.86
2018-05-24T13:59:12.245Z,14.93
2018-05-24T14:00:12.511Z,14.86
2018-05-24T14:01:12.313Z,14.93
2018-05-24T14:02:12.228Z,14.94
2018-05-24T14:03:12.224Z,14.94
2018-05-24T14:04:12.216Z,14.95
2018-05-24T14:05:12.477Z,14.9
2018-05-24T14:06:11.952Z,14.83
2018-05-24T14:07:12.202Z,14.94
2018-05-24T14:08:12.196Z,14.97
2018-05-24T14:09:12.444Z,14.98
2018-05-24T14:10:12.183Z,14.98
2018-05-24T14:11:12.434Z,15.04
2018-05-24T14:12:12.429Z,15.02
2018-05-24T14:13:12.427Z,15.04
2018-05-24T14:14:12.160Z,15.07
2018-05-24T14:15:12.157Z,15
2018-05-24T14:16:12.148Z,15.01
2018-05-24T14:17:12.401Z,15
2018-05-24T14:18:12.142Z,15.02
2018-05-24T14:19:12.393Z,15.1
2018-05-24T14:20:12.390Z,15.02
2018-05-24T14:21:12.390Z,15.05
2018-05-24T14:22:12.122Z,15.02
2018-05-24T14:23:12.111Z,15.08
2018-05-24T14:24:12.106Z,15
2018-05-24T14:25:12.355Z,15.07
2018-05-24T14:26:12.489Z,15.1
2018-05-24T14:27:12.090Z,15.05
2018-05-24T14:28:12.084Z,15.02
2018-05-24T14:29:12.079Z,15.1
2018-05-24T14:30:12.329Z,15.05
2018-05-24T14:31:12.077Z,15.08
2018-05-24T14:32:12.061Z,15.12
2018-05-24T14:33:12.059Z,15.1
2018-05-24T14:34:12.050Z,15.19
2018-05-24T14:35:12.305Z,15.15
2018-05-24T14:36:12.043Z,15.22
2018-05-24T14:37:12.295Z,15.22
2018-05-24T14:38:12.032Z,15.19
2018-05-24T14:39:12.026Z,15.19
2018-05-24T14:40:12.018Z,15.25
2018-05-24T14:41:11.758Z,15.18
2018-05-24T14:42:12.008Z,15.16
2018-05-24T14:43:12.264Z,15.08
2018-05-24T14:44:11.742Z,15.1
2018-05-24T14:45:11.995Z,15.15
2018-05-24T14:46:11.985Z,15.13
2018-05-24T14:47:12.243Z,15.12
2018-05-24T14:48:12.234Z,15.02
2018-05-24T14:49:12.231Z,15.08
2018-05-24T14:50:12.224Z,15.01
2018-05-24T14:51:12.234Z,15.16
2018-05-24T14:52:11.955Z,15.08
2018-05-24T14:53:11.950Z,15.05
2018-05-24T14:54:12.201Z,15.1
2018-05-24T14:55:12.238Z,15.1
2018-05-24T14:56:11.933Z,15.02
2018-05-24T14:57:11.928Z,15.08
2018-05-24T14:58:11.928Z,15.05
2018-05-24T14:59:11.920Z,15.02
2018-05-24T15:00:11.916Z,15.05
2018-05-24T15:01:11.910Z,15.04
2018-05-24T15:02:12.160Z,15.1
2018-05-24T15:03:11.896Z,15.04
2018-05-24T15:04:12.161Z,15.01
2018-05-24T15:05:12.154Z,15.04
2018-05-24T15:06:11.884Z,15.08
2018-05-24T15:07:12.135Z,15.02
2018-05-24T15:08:11.871Z,15.01
2018-05-24T15:09:11.868Z,15.05
2018-05-24T15:10:11.857Z,15
2018-05-24T15:11:12.110Z,15.02
2018-05-24T15:12:12.106Z,15.04
2018-05-24T15:13:11.888Z,15.04
2018-05-24T15:14:11.837Z,15.08
2018-05-24T15:15:11.833Z,15.04
2018-05-24T15:16:12.085Z,15.02
2018-05-24T15:17:11.820Z,14.97
2018-05-24T15:18:11.820Z,14.97
2018-05-24T15:19:12.069Z,15.02
2018-05-24T15:20:12.066Z,14.9
2018-05-24T15:21:12.059Z,15.01
2018-05-24T15:22:11.794Z,14.97
2018-05-24T15:23:12.049Z,14.98
2018-05-24T15:24:11.786Z,14.94
2018-05-24T15:25:12.041Z,14.94
2018-05-24T15:26:12.033Z,14.97
2018-05-24T15:27:11.768Z,14.93
2018-05-24T15:28:12.017Z,15.02
2018-05-24T15:29:11.761Z,15.01
2018-05-24T15:30:11.755Z,14.97
2018-05-24T15:31:11.744Z,15.02
2018-05-24T15:32:11.998Z,15.01
2018-05-24T15:33:11.734Z,14.93
2018-05-24T15:34:11.727Z,14.93
2018-05-24T15:35:11.725Z,14.86
2018-05-24T15:36:11.976Z,14.93
2018-05-24T15:37:11.711Z,14.94
2018-05-24T15:38:11.703Z,14.95
2018-05-24T15:39:11.959Z,14.94
2018-05-24T15:40:11.437Z,14.95
2018-05-24T15:41:11.947Z,14.9
2018-05-24T15:42:11.945Z,14.93
2018-05-24T15:43:11.684Z,14.87
2018-05-24T15:44:11.936Z,14.98
2018-05-24T15:45:11.938Z,14.98
2018-05-24T15:46:11.662Z,15.02
2018-05-24T15:47:11.662Z,14.9
2018-05-24T15:48:11.395Z,14.98
2018-05-24T15:49:11.645Z,14.86
2018-05-24T15:50:11.926Z,14.94
2018-05-24T15:51:11.902Z,14.98
2018-05-24T15:52:11.887Z,15.02
2018-05-24T15:53:11.881Z,15
2018-05-24T15:54:11.614Z,15
2018-05-24T15:55:11.875Z,15.01
2018-05-24T15:56:11.606Z,14.97
2018-05-24T15:57:11.346Z,15.02
2018-05-24T15:58:11.338Z,14.98
2018-05-24T15:59:11.598Z,15.02
2018-05-24T16:00:11.842Z,15
2018-05-24T16:01:11.584Z,14.97
2018-05-24T16:02:11.316Z,14.93
2018-05-24T16:03:11.825Z,15.01
2018-05-24T16:04:11.871Z,15.02
2018-05-24T16:05:11.556Z,15.02
2018-05-24T16:06:11.550Z,15.16
2018-05-24T16:07:11.807Z,15.1
2018-05-24T16:08:11.800Z,15.18
2018-05-24T16:09:11.537Z,15.23
2018-05-24T16:10:11.791Z,15.23
2018-05-24T16:11:11.524Z,15.26
2018-05-24T16:12:11.777Z,15.34
2018-05-24T16:13:11.773Z,15.34
2018-05-24T16:14:11.772Z,15.35
2018-05-24T16:15:11.763Z,15.35
2018-05-24T16:16:11.760Z,15.41
2018-05-24T16:17:11.492Z,15.4
2018-05-24T16:18:11.486Z,15.45
2018-05-24T16:19:11.224Z,15.53
2018-05-24T16:20:11.744Z,15.43
2018-05-24T16:21:11.730Z,15.41
2018-05-24T16:22:11.467Z,15.41
2018-05-24T16:23:11.464Z,15.37
2018-05-24T16:24:11.462Z,15.31
2018-05-24T16:25:11.720Z,15.3
2018-05-24T16:26:11.451Z,15.25
2018-05-24T16:27:11.443Z,15.22
2018-05-24T16:28:11.180Z,15.2
2018-05-24T16:29:11.689Z,15.2
2018-05-24T16:30:11.427Z,15.16
2018-05-24T16:31:11.162Z,15.04
2018-05-24T16:32:11.418Z,15.05
2018-05-24T16:33:11.675Z,14.98
2018-05-24T16:34:11.404Z,14.98
2018-05-24T16:35:11.663Z,14.9
2018-05-24T16:36:11.653Z,14.87
2018-05-24T16:37:11.389Z,14.79
2018-05-24T16:38:11.384Z,14.82
2018-05-24T16:39:11.120Z,14.82
2018-05-24T16:40:11.635Z,14.71
2018-05-24T16:41:11.112Z,14.75
2018-05-24T16:42:11.360Z,14.67
2018-05-24T16:43:11.603Z,14.71
2018-05-24T16:44:11.356Z,14.64
2018-05-24T16:45:11.350Z,14.63
2018-05-24T16:46:11.595Z,14.6
2018-05-24T16:47:11.593Z,14.6
2018-05-24T16:48:11.585Z,14.48
2018-05-24T16:49:11.350Z,14.48
2018-05-24T16:50:11.059Z,14.57
2018-05-24T16:51:11.311Z,14.44
2018-05-24T16:52:11.564Z,14.48
2018-05-24T16:53:11.553Z,14.57
2018-05-24T16:54:11.048Z,14.52
2018-05-24T16:55:11.560Z,14.49
2018-05-24T16:56:11.560Z,14.44
2018-05-24T16:57:11.275Z,14.45
2018-05-24T16:58:11.270Z,14.51
2018-05-24T16:59:11.007Z,14.45
2018-05-24T17:00:11.530Z,14.44
2018-05-24T17:01:11.258Z,14.48
2018-05-24T17:02:11.502Z,14.41
2018-05-24T17:03:10.982Z,14.3
2018-05-24T17:04:11.504Z,14.39
2018-05-24T17:05:11.508Z,14.3
2018-05-24T17:06:11.482Z,14.36
2018-05-24T17:07:10.961Z,14.41
2018-05-24T17:08:11.219Z,14.24
2018-05-24T17:09:11.461Z,14.41
2018-05-24T17:10:11.463Z,14.3
2018-05-24T17:11:10.933Z,14.38
2018-05-24T17:12:11.187Z,14.31
2018-05-24T17:13:11.441Z,14.3
2018-05-24T17:14:11.430Z,14.34
2018-05-24T17:15:11.169Z,14.26
2018-05-24T17:16:11.163Z,14.33
2018-05-24T17:17:11.157Z,14.26
2018-05-24T17:18:11.405Z,14.27
2018-05-24T17:19:11.411Z,14.24
2018-05-24T17:20:11.138Z,14.19
2018-05-24T17:21:11.136Z,14.24
2018-05-24T17:22:11.131Z,14.2
2018-05-24T17:23:11.378Z,14.21
2018-05-24T17:24:11.113Z,14.19
2018-05-24T17:25:11.367Z,14.21
2018-05-24T17:26:11.114Z,14.27
2018-05-24T17:27:11.095Z,14.2
2018-05-24T17:28:11.089Z,14.26
2018-05-24T17:29:11.085Z,14.2
2018-05-24T17:30:11.338Z,14.23
2018-05-24T17:31:11.073Z,14.19
2018-05-24T17:32:11.067Z,14.16
2018-05-24T17:33:11.058Z,14.15
2018-05-24T17:34:11.053Z,14.16
2018-05-24T17:35:11.303Z,14.23
2018-05-24T17:36:11.303Z,14.26
2018-05-24T17:37:11.291Z,14.3
2018-05-24T17:38:11.284Z,14.26
2018-05-24T17:39:10.768Z,14.28
2018-05-24T17:40:11.271Z,14.33
2018-05-24T17:41:11.013Z,14.24
2018-05-24T17:42:11.003Z,14.27
2018-05-24T17:43:10.742Z,14.26
2018-05-24T17:44:11.256Z,14.28
2018-05-24T17:45:10.989Z,14.24
2018-05-24T17:46:11.242Z,14.26
2018-05-24T17:47:11.228Z,14.28
2018-05-24T17:48:10.711Z,14.28
2018-05-24T17:49:10.709Z,14.27
2018-05-24T17:50:10.700Z,14.27
2018-05-24T17:51:10.690Z,14.27
2018-05-24T17:52:10.951Z,14.28
2018-05-24T17:53:11.197Z,14.33
2018-05-24T17:54:10.931Z,14.27
2018-05-24T17:55:10.671Z,14.26
2018-05-24T17:56:11.182Z,14.26
2018-05-24T17:57:10.912Z,14.2
2018-05-24T17:58:11.164Z,14.24
2018-05-24T17:59:10.899Z,14.28
2018-05-24T18:00:11.148Z,14.19
2018-05-24T18:01:11.162Z,14.2
2018-05-24T18:02:10.879Z,14.13
2018-05-24T18:03:10.966Z,14.19
2018-05-24T18:04:11.126Z,14.15
2018-05-24T18:05:11.119Z,14.24
2018-05-24T18:06:10.857Z,14.19
2018-05-24T18:07:10.851Z,14.19
2018-05-24T18:08:11.105Z,14.21
2018-05-24T18:09:10.843Z,14.16
2018-05-24T18:10:10.573Z,14.2
2018-05-24T18:11:10.827Z,14.2
2018-05-24T18:12:11.077Z,14.2
2018-05-24T18:13:10.816Z,14.2
2018-05-24T18:14:11.067Z,14.24
2018-05-24T18:15:11.252Z,14.2
2018-05-24T18:16:10.681Z,14.15
2018-05-24T18:17:10.791Z,14.16
2018-05-24T18:18:10.535Z,14.12
2018-05-24T18:19:11.037Z,14.2
2018-05-24T18:20:11.206Z,14.16
2018-05-24T18:21:10.644Z,14.21
2018-05-24T18:22:11.177Z,14.19
2018-05-24T18:23:11.124Z,14.06
2018-05-24T18:24:11.185Z,14.13
2018-05-24T18:25:10.898Z,14.12
2018-05-24T18:26:11.118Z,14.15
2018-05-24T18:27:10.825Z,14.12
2018-05-24T18:28:11.168Z,14.16
2018-05-24T18:29:11.100Z,14.11
2018-05-24T18:30:10.860Z,14.12
2018-05-24T18:31:10.790Z,14.11
2018-05-24T18:32:11.133Z,14.08
2018-05-24T18:33:10.873Z,14.11
2018-05-24T18:34:11.043Z,14.08
2018-05-24T18:35:10.755Z,14.08
2018-05-24T18:36:11.275Z,14.21
2018-05-24T18:37:10.517Z,14.06
2018-05-24T18:38:11.134Z,14.15
2018-05-24T18:39:10.823Z,14.15
2018-05-24T18:40:10.489Z,14.11
2018-05-24T18:41:10.604Z,14.08
2018-05-24T18:42:10.551Z,14.12
2018-05-24T18:43:11.241Z,13.97
2018-05-24T18:44:10.847Z,14.05
2018-05-24T18:45:10.896Z,14.05
2018-05-24T18:46:11.213Z,14.03
2018-05-24T18:47:10.843Z,14.05
2018-05-24T18:48:11.163Z,14.06
2018-05-24T18:49:11.212Z,14.01
2018-05-24T18:50:11.026Z,13.97
2018-05-24T18:51:10.837Z,13.99
2018-05-24T18:52:10.463Z,14.01
2018-05-24T18:53:10.924Z,14.03
2018-05-24T18:54:10.897Z,13.95
2018-05-24T18:55:10.442Z,13.93
2018-05-24T18:56:11.186Z,13.93
2018-05-24T18:57:10.478Z,13.93
2018-05-24T18:58:11.086Z,13.94
2018-05-24T18:59:10.954Z,13.95
2018-05-24T19:00:11.066Z,13.91
2018-05-24T19:01:11.015Z,13.95
2018-05-24T19:02:10.730Z,13.9
2018-05-24T19:03:11.017Z,13.9
2018-05-24T19:04:10.643Z,13.9
2018-05-24T19:05:10.368Z,13.93
2018-05-24T19:06:10.690Z,13.94
2018-05-24T19:07:10.909Z,13.88
2018-05-24T19:08:11.137Z,13.9
2018-05-24T19:09:10.896Z,13.79
2018-05-24T19:10:10.578Z,13.87
2018-05-24T19:11:10.578Z,13.83
2018-05-24T19:12:10.199Z,13.81
2018-05-24T19:13:10.966Z,13.86
2018-05-24T19:14:10.615Z,13.75
2018-05-24T19:15:10.577Z,13.83
2018-05-24T19:16:10.939Z,13.79
2018-05-24T19:17:10.771Z,13.81
2018-05-24T19:18:10.286Z,13.84
2018-05-24T19:19:10.582Z,13.75
2018-05-24T19:20:10.539Z,13.76
2018-05-24T19:21:10.884Z,13.86
2018-05-24T19:22:10.855Z,13.78
2018-05-24T19:23:10.858Z,13.81
2018-05-24T19:24:10.830Z,13.84
2018-05-24T19:25:10.631Z,13.79
2018-05-24T19:26:10.460Z,13.84
2018-05-24T19:27:10.579Z,13.81
2018-05-24T19:28:10.538Z,13.78
2018-05-24T19:29:10.540Z,13.83
2018-05-24T19:30:10.570Z,13.79
2018-05-24T19:31:10.475Z,13.78
2018-05-24T19:32:10.655Z,13.75
2018-05-24T19:33:10.736Z,13.78
2018-05-24T19:34:10.710Z,13.78
2018-05-24T19:35:10.476Z,13.78
2018-05-24T19:36:10.454Z,13.75
2018-05-24T19:37:10.471Z,13.78
2018-05-24T19:38:10.780Z,13.76
2018-05-24T19:39:10.458Z,13.66
2018-05-24T19:40:10.524Z,13.72
2018-05-24T19:41:10.439Z,13.72
2018-05-24T19:42:10.467Z,13.69
2018-05-24T19:43:10.437Z,13.68
2018-05-24T19:44:10.733Z,13.66
2018-05-24T19:45:10.350Z,13.68
2018-05-24T19:46:10.680Z,13.7
2018-05-24T19:47:10.601Z,13.7
2018-05-24T19:48:10.384Z,13.68
2018-05-24T19:49:10.309Z,13.62
2018-05-24T19:50:10.343Z,13.58
2018-05-24T19:51:10.348Z,13.72
2018-05-24T19:52:10.954Z,13.66
2018-05-24T19:53:10.404Z,13.66
2018-05-24T19:54:10.564Z,13.62
2018-05-24T19:55:10.291Z,13.6
2018-05-24T19:56:10.224Z,13.66
2018-05-24T19:57:10.376Z,13.63
2018-05-24T19:58:10.576Z,13.68
2018-05-24T19:59:10.558Z,13.69
2018-05-24T20:00:10.590Z,13.63
2018-05-24T20:01:10.504Z,13.58
2018-05-24T20:02:10.546Z,13.62
2018-05-24T20:03:10.180Z,13.57
2018-05-24T20:04:10.511Z,13.65
2018-05-24T20:05:10.491Z,13.57
2018-05-24T20:06:10.564Z,13.55
2018-05-24T20:07:10.527Z,13.5
2018-05-24T20:08:10.256Z,13.53
2018-05-24T20:09:10.558Z,13.54
2018-05-24T20:10:10.238Z,13.55
2018-05-24T20:11:10.161Z,13.58
2018-05-24T20:12:10.571Z,13.63
2018-05-24T20:13:10.644Z,13.57
2018-05-24T20:14:09.966Z,13.58
2018-05-24T20:15:10.537Z,13.51
2018-05-24T20:16:10.464Z,13.51
2018-05-24T20:17:11.104Z,13.54
2018-05-24T20:18:10.133Z,13.53
2018-05-24T20:19:10.060Z,13.62
2018-05-24T20:20:10.615Z,13.51
2018-05-24T20:21:10.289Z,13.57
2018-05-24T20:22:09.875Z,13.55
2018-05-24T20:23:10.355Z,13.58
2018-05-24T20:24:10.615Z,13.55
2018-05-24T20:25:10.260Z,13.51
2018-05-24T20:26:10.145Z,13.57
2018-05-24T20:27:10.522Z,13.47
2018-05-24T20:28:10.445Z,13.47
2018-05-24T20:29:10.570Z,13.5
2018-05-24T20:30:10.073Z,13.51
2018-05-24T20:31:10.118Z,13.53
2018-05-24T20:32:10.080Z,13.45
2018-05-24T20:33:10.193Z,13.51
2018-05-24T20:34:10.521Z,13.44
2018-05-24T20:35:10.366Z,13.48
2018-05-24T20:36:10.403Z,13.51
2018-05-24T20:37:10.420Z,13.45
2018-05-24T20:38:10.363Z,13.42
2018-05-24T20:39:10.514Z,13.44
2018-05-24T20:40:10.401Z,13.44
2018-05-24T20:41:10.090Z,13.47
2018-05-24T20:42:09.787Z,13.42
2018-05-24T20:43:10.278Z,13.47
2018-05-24T20:44:10.415Z,13.45
2018-05-24T20:45:10.351Z,13.51
2018-05-24T20:46:10.023Z,13.55
2018-05-24T20:47:10.249Z,13.48
2018-05-24T20:48:10.339Z,13.42
2018-05-24T20:49:10.062Z,13.42
2018-05-24T20:50:09.993Z,13.47
2018-05-24T20:51:09.930Z,13.48
2018-05-24T20:52:09.807Z,13.47
2018-05-24T20:53:10.246Z,13.58
2018-05-24T20:54:10.267Z,13.45
2018-05-24T20:55:09.941Z,13.57
2018-05-24T20:56:09.932Z,13.53
2018-05-24T20:57:10.017Z,13.48
2018-05-24T20:58:09.926Z,13.45
2018-05-24T20:59:10.207Z,13.54
2018-05-24T21:00:09.916Z,13.48
2018-05-24T21:01:10.266Z,13.51
2018-05-24T21:02:09.901Z,13.44
2018-05-24T21:03:09.859Z,13.45
2018-05-24T21:04:09.864Z,13.36
2018-05-24T21:05:10.089Z,13.45
2018-05-24T21:06:09.892Z,13.5
2018-05-24T21:07:10.011Z,13.45
2018-05-24T21:08:09.855Z,13.45
2018-05-24T21:09:09.874Z,13.44
2018-05-24T21:10:09.939Z,13.44
2018-05-24T21:11:09.682Z,13.39
2018-05-24T21:12:09.936Z,13.45
2018-05-24T21:13:09.923Z,13.45
2018-05-24T21:14:09.934Z,13.45
2018-05-24T21:15:09.651Z,13.47
2018-05-24T21:16:09.643Z,13.42
2018-05-24T21:17:09.637Z,13.42
2018-05-24T21:18:10.023Z,13.48
2018-05-24T21:19:09.882Z,13.37
2018-05-24T21:20:09.881Z,13.4
2018-05-24T21:21:09.873Z,13.36
2018-05-24T21:22:09.604Z,13.39
2018-05-24T21:23:09.858Z,13.37
2018-05-24T21:24:09.850Z,13.32
2018-05-24T21:25:09.588Z,13.31
2018-05-24T21:26:09.580Z,13.29
2018-05-24T21:27:09.828Z,13.32
2018-05-24T21:28:09.824Z,13.31
2018-05-24T21:29:09.820Z,13.29
2018-05-24T21:30:09.812Z,13.28
2018-05-24T21:31:09.804Z,13.28
2018-05-24T21:32:09.848Z,13.28
2018-05-24T21:33:09.530Z,13.31
2018-05-24T21:34:09.784Z,13.29
2018-05-24T21:35:09.524Z,13.36
2018-05-24T21:36:09.516Z,13.25
2018-05-24T21:37:09.503Z,13.28
2018-05-24T21:38:09.755Z,13.36
2018-05-24T21:39:09.754Z,13.31
2018-05-24T21:40:09.744Z,13.27
2018-05-24T21:41:09.730Z,13.29
2018-05-24T21:42:09.473Z,13.36
2018-05-24T21:43:09.755Z,13.27
2018-05-24T21:44:09.757Z,13.42
2018-05-24T21:45:09.191Z,13.37
2018-05-24T21:46:09.704Z,13.4
2018-05-24T21:47:09.698Z,13.4
2018-05-24T21:48:09.686Z,13.4
2018-05-24T21:49:09.697Z,13.45
2018-05-24T21:50:09.161Z,13.4
2018-05-24T21:51:09.151Z,13.44
2018-05-24T21:52:09.402Z,13.4
2018-05-24T21:53:09.396Z,13.45
2018-05-24T21:54:09.644Z,13.44
2018-05-24T21:55:09.381Z,13.48
2018-05-24T21:56:09.372Z,13.45
2018-05-24T21:57:09.621Z,13.4
2018-05-24T21:58:09.620Z,13.42
2018-05-24T21:59:09.614Z,13.39
2018-05-24T22:00:09.603Z,13.48
2018-05-24T22:01:09.596Z,13.48
2018-05-24T22:02:09.716Z,13.44
2018-05-24T22:03:09.585Z,13.4
2018-05-24T22:04:09.577Z,13.45
2018-05-24T22:05:09.318Z,13.44
2018-05-24T22:06:09.562Z,13.44
2018-05-24T22:07:09.556Z,13.45
2018-05-24T22:08:09.293Z,13.44
2018-05-24T22:09:09.286Z,13.48
2018-05-24T22:10:09.279Z,13.45
2018-05-24T22:11:09.534Z,13.44
2018-05-24T22:12:09.523Z,13.48
2018-05-24T22:13:09.517Z,13.4
2018-05-24T22:14:09.508Z,13.44
2018-05-24T22:15:09.551Z,13.4
2018-05-24T22:16:09.259Z,13.47
2018-05-24T22:17:09.014Z,13.4
2018-05-24T22:18:09.223Z,13.4
2018-05-24T22:19:09.481Z,13.35
2018-05-24T22:20:09.211Z,13.37
2018-05-24T22:21:08.947Z,13.37
2018-05-24T22:22:09.197Z,13.39
2018-05-24T22:23:09.188Z,13.42
2018-05-24T22:24:09.181Z,13.42
2018-05-24T22:25:09.175Z,13.4
2018-05-24T22:26:09.428Z,13.48
2018-05-24T22:27:09.163Z,13.45
2018-05-24T22:28:09.412Z,13.47
2018-05-24T22:29:09.405Z,13.45
2018-05-24T22:30:09.147Z,13.45
2018-05-24T22:31:08.878Z,13.44
2018-05-24T22:32:09.133Z,13.39
2018-05-24T22:33:09.385Z,13.39
2018-05-24T22:34:09.383Z,13.48
2018-05-24T22:35:09.112Z,13.45
2018-05-24T22:36:08.847Z,13.48
2018-05-24T22:37:09.098Z,13.4
2018-05-24T22:38:09.351Z,13.47
2018-05-24T22:39:09.340Z,13.48
2018-05-24T22:40:09.103Z,13.47
2018-05-24T22:41:09.069Z,13.48
2018-05-24T22:42:09.063Z,13.53
2018-05-24T22:43:09.315Z,13.51
2018-05-24T22:44:09.048Z,13.51
2018-05-24T22:45:09.300Z,13.4